createdAt,value
2023-04-14T00:00:49.496Z,51.58
2023-04-14T00:03:18.228Z,51.62
2023-04-14T00:05:46.243Z,51.59
2023-04-14T00:08:13.943Z,51.69
2023-04-14T00:10:41.815Z,51.46
2023-04-14T00:13:10.889Z,51.60
2023-04-14T00:15:38.642Z,51.62
2023-04-14T00:18:06.570Z,51.78
2023-04-14T00:20:34.298Z,51.84
2023-04-14T00:23:01.998Z,51.75
2023-04-14T00:25:29.740Z,51.57
2023-04-14T00:27:57.513Z,51.78
2023-04-14T00:30:27.100Z,51.79
2023-04-14T00:32:54.855Z,51.95
2023-04-14T00:35:24.404Z,51.90
2023-04-14T00:37:52.668Z,52.21
2023-04-14T00:40:20.400Z,52.12
2023-04-14T00:42:48.745Z,52.29
2023-04-14T00:45:16.673Z,52.07
2023-04-14T00:47:49.237Z,52.19
2023-04-14T00:50:18.981Z,51.91
2023-04-14T00:52:50.292Z,52.17
2023-04-14T00:55:19.949Z,51.98
2023-04-14T00:57:47.909Z,52.19
2023-04-14T01:00:16.146Z,51.90
2023-04-14T01:02:45.676Z,52.23
2023-04-14T01:05:13.558Z,52.50
2023-04-14T01:07:42.254Z,52.13
2023-04-14T01:10:11.345Z,52.10
2023-04-14T01:12:58.870Z,52.52
2023-04-14T01:15:35.081Z,52.20
2023-04-14T01:18:10.419Z,52.36
2023-04-14T01:20:42.867Z,52.25
2023-04-14T01:23:14.068Z,52.51
2023-04-14T01:26:16.815Z,52.20
2023-04-14T01:29:07.229Z,52.27
2023-04-14T01:31:41.277Z,52.27
2023-04-14T01:34:14.992Z,52.41
2023-04-14T01:36:44.922Z,52.27
2023-04-14T01:39:16.880Z,52.47
2023-04-14T01:41:48.798Z,52.67
2023-04-14T01:44:20.044Z,52.28
2023-04-14T01:46:51.845Z,52.58
2023-04-14T01:49:23.075Z,52.34
2023-04-14T01:51:51.904Z,52.55
2023-04-14T01:54:21.094Z,52.65
2023-04-14T01:56:52.213Z,52.66
2023-04-14T01:59:21.707Z,52.17
2023-04-14T02:01:52.198Z,52.62
2023-04-14T02:04:23.923Z,52.78
2023-04-14T02:06:52.811Z,52.44
2023-04-14T02:09:21.852Z,52.32
2023-04-14T02:11:51.379Z,52.46
2023-04-14T02:14:20.297Z,52.79
2023-04-14T02:16:49.759Z,52.48
2023-04-14T02:19:21.021Z,52.43
2023-04-14T02:21:50.591Z,52.42
2023-04-14T02:24:19.193Z,52.58
2023-04-14T02:27:08.203Z,52.52
2023-04-14T02:29:38.501Z,52.28
2023-04-14T02:32:11.410Z,52.89
2023-04-14T02:35:01.881Z,52.92
2023-04-14T02:37:35.230Z,53.09
2023-04-14T02:40:12.523Z,52.91
2023-04-14T02:42:44.435Z,52.76
2023-04-14T02:45:17.391Z,52.93
2023-04-14T02:47:48.807Z,52.58
2023-04-14T02:50:20.296Z,52.46
2023-04-14T02:52:51.463Z,52.80
2023-04-14T02:55:21.464Z,52.90
2023-04-14T02:57:50.320Z,52.86
2023-04-14T03:00:19.344Z,52.98
2023-04-14T03:02:48.152Z,52.54
2023-04-14T03:05:17.765Z,52.87
2023-04-14T03:07:47.524Z,52.79
2023-04-14T03:10:15.824Z,52.65
2023-04-14T03:12:44.928Z,52.74
2023-04-14T03:15:12.742Z,53.18
2023-04-14T03:17:41.490Z,53.10
2023-04-14T03:20:11.037Z,53.41
2023-04-14T03:22:41.900Z,52.84
2023-04-14T03:25:12.317Z,53.25
2023-04-14T03:27:41.237Z,52.95
2023-04-14T03:30:13.376Z,53.18
2023-04-14T03:32:43.573Z,53.33
2023-04-14T03:35:14.969Z,52.98
2023-04-14T03:37:46.697Z,53.19
2023-04-14T03:40:16.369Z,52.76
2023-04-14T03:42:46.368Z,53.31
2023-04-14T03:45:14.103Z,52.91
2023-04-14T03:47:41.855Z,52.80
2023-04-14T03:50:12.225Z,53.29
2023-04-14T03:52:43.793Z,53.38
2023-04-14T03:55:13.816Z,53.48
2023-04-14T03:57:43.918Z,53.15
2023-04-14T04:00:13.876Z,53.68
2023-04-14T04:02:43.376Z,52.75
2023-04-14T04:05:11.507Z,53.62
2023-04-14T04:07:41.431Z,53.26
2023-04-14T04:10:10.086Z,53.22
2023-04-14T04:12:42.472Z,53.45
2023-04-14T04:15:11.401Z,53.26
2023-04-14T04:17:39.720Z,53.23
2023-04-14T04:20:11.044Z,53.39
2023-04-14T04:22:41.943Z,53.07
2023-04-14T04:25:12.109Z,53.14
2023-04-14T04:27:41.309Z,52.95
2023-04-14T04:30:10.608Z,53.17
2023-04-14T04:32:38.726Z,53.76
2023-04-14T04:35:08.225Z,53.77
2023-04-14T04:37:37.420Z,53.69
2023-04-14T04:40:05.616Z,53.32
2023-04-14T04:42:33.317Z,53.38
2023-04-14T04:45:02.434Z,53.23
2023-04-14T04:47:30.156Z,53.44
2023-04-14T04:49:57.898Z,53.67
2023-04-14T04:52:25.786Z,53.23
2023-04-14T04:54:53.505Z,53.23
2023-04-14T04:57:21.378Z,54.04
2023-04-14T04:59:49.138Z,53.64
2023-04-14T05:02:18.245Z,53.80
2023-04-14T05:04:46.298Z,54.06
2023-04-14T05:07:14.046Z,53.93
2023-04-14T05:09:41.789Z,53.77
2023-04-14T05:12:09.552Z,53.47
2023-04-14T05:14:37.386Z,53.84
2023-04-14T05:17:05.070Z,54.00
2023-04-14T05:19:34.154Z,54.12
2023-04-14T05:22:02.664Z,54.08
2023-04-14T05:24:30.391Z,54.21
2023-04-14T05:27:13.007Z,53.50
2023-04-14T05:29:41.763Z,53.68
2023-04-14T05:32:10.683Z,53.83
2023-04-14T05:34:39.762Z,54.28
2023-04-14T05:37:07.561Z,53.92
2023-04-14T05:39:35.300Z,53.52
2023-04-14T05:42:02.998Z,54.07
2023-04-14T05:44:30.726Z,54.36
2023-04-14T05:46:58.582Z,53.54
2023-04-14T05:49:26.274Z,53.80
2023-04-14T05:51:57.138Z,53.70
2023-04-14T05:54:24.919Z,53.95
2023-04-14T05:56:52.622Z,54.06
2023-04-14T05:59:20.960Z,53.60
2023-04-14T06:01:48.779Z,53.78
2023-04-14T06:04:16.957Z,54.06
2023-04-14T06:06:44.863Z,54.24
2023-04-14T06:09:13.945Z,53.89
2023-04-14T06:11:41.692Z,54.44
2023-04-14T06:14:09.573Z,54.41
2023-04-14T06:16:37.320Z,54.17
2023-04-14T06:19:05.115Z,54.31
2023-04-14T06:21:32.814Z,54.66
2023-04-14T06:24:00.590Z,54.61
2023-04-14T06:26:29.840Z,54.40
2023-04-14T06:28:59.338Z,54.08
2023-04-14T06:31:27.596Z,54.50
2023-04-14T06:33:55.444Z,55.04
2023-04-14T06:36:23.151Z,54.72
2023-04-14T06:38:51.078Z,54.91
2023-04-14T06:41:18.788Z,54.27
2023-04-14T06:43:47.833Z,55.24
2023-04-14T06:46:15.602Z,54.45
2023-04-14T06:48:43.355Z,54.50
2023-04-14T06:51:12.386Z,54.08
2023-04-14T06:53:40.371Z,54.12
2023-04-14T06:56:09.199Z,53.81
2023-04-14T06:58:37.055Z,53.03
2023-04-14T07:01:06.508Z,52.82
2023-04-14T07:03:34.510Z,52.13
2023-04-14T07:06:06.865Z,51.59
2023-04-14T07:08:35.390Z,51.34
2023-04-14T07:11:05.288Z,51.47
2023-04-14T07:13:33.734Z,51.83
2023-04-14T07:16:02.274Z,52.40
2023-04-14T07:18:31.762Z,52.46
2023-04-14T07:21:00.341Z,52.82
2023-04-14T07:23:28.753Z,53.36
2023-04-14T07:25:58.666Z,53.67
2023-04-14T07:28:28.142Z,53.94
2023-04-14T07:30:56.686Z,54.00
2023-04-14T07:33:25.367Z,54.43
2023-04-14T07:36:02.769Z,54.86
2023-04-14T07:38:32.314Z,55.33
2023-04-14T07:41:00.246Z,54.83
2023-04-14T07:43:28.026Z,55.12
2023-04-14T07:45:55.784Z,54.77
2023-04-14T07:48:23.488Z,54.90
2023-04-14T07:50:51.220Z,55.05
2023-04-14T07:53:20.316Z,55.24
2023-04-14T07:55:48.049Z,55.95
2023-04-14T07:58:17.437Z,55.94
2023-04-14T08:00:45.519Z,56.19
2023-04-14T08:03:13.787Z,56.10
2023-04-14T08:05:43.157Z,56.36
2023-04-14T08:08:11.176Z,56.48
2023-04-14T08:10:41.559Z,56.42
2023-04-14T08:13:09.342Z,56.86
2023-04-14T08:15:37.055Z,56.75
2023-04-14T08:18:05.343Z,56.75
2023-04-14T08:20:33.429Z,56.67
2023-04-14T08:23:01.177Z,56.70
2023-04-14T08:25:28.931Z,56.72
2023-04-14T08:27:58.082Z,56.86
2023-04-14T08:30:26.148Z,57.12
2023-04-14T08:32:54.068Z,57.38
2023-04-14T08:35:37.705Z,57.85
2023-04-14T08:38:09.009Z,57.47
2023-04-14T08:40:39.498Z,58.76
2023-04-14T08:43:09.174Z,57.96
2023-04-14T08:45:38.088Z,57.79
2023-04-14T08:48:06.549Z,57.66
2023-04-14T08:50:37.930Z,57.73
2023-04-14T08:53:09.447Z,56.38
2023-04-14T08:55:38.681Z,56.59
2023-04-14T08:58:10.533Z,54.54
2023-04-14T09:00:40.205Z,54.49
2023-04-14T09:03:09.025Z,52.96
2023-04-14T09:05:37.296Z,53.35
2023-04-14T09:08:05.259Z,52.63
2023-04-14T09:10:33.464Z,51.44
2023-04-14T09:13:01.446Z,51.89
2023-04-14T09:15:31.617Z,52.86
2023-04-14T09:17:59.522Z,52.79
2023-04-14T09:20:35.806Z,53.86
2023-04-14T09:23:08.896Z,53.63
2023-04-14T09:25:37.779Z,54.67
2023-04-14T09:28:05.603Z,55.55
2023-04-14T09:30:34.944Z,55.82
2023-04-14T09:33:06.059Z,55.97
2023-04-14T09:35:45.659Z,55.50
2023-04-14T09:38:13.486Z,55.43
2023-04-14T09:40:44.129Z,55.71
2023-04-14T09:43:24.826Z,56.63
2023-04-14T09:45:54.925Z,56.51
2023-04-14T09:48:22.985Z,56.77
2023-04-14T09:50:58.970Z,57.18
2023-04-14T09:53:28.176Z,57.32
2023-04-14T09:55:56.115Z,57.42
2023-04-14T09:58:27.309Z,57.34
2023-04-14T10:00:57.478Z,57.45
2023-04-14T10:03:36.084Z,57.80
2023-04-14T10:06:07.421Z,58.10
2023-04-14T10:08:37.315Z,58.40
2023-04-14T10:11:19.817Z,57.87
2023-04-14T10:13:48.283Z,57.78
2023-04-14T10:16:18.052Z,57.83
2023-04-14T10:18:46.581Z,57.77
2023-04-14T10:21:15.662Z,57.90
2023-04-14T10:23:44.523Z,58.12
2023-04-14T10:26:13.463Z,57.76
2023-04-14T10:28:44.093Z,57.06
2023-04-14T10:31:16.124Z,56.16
2023-04-14T10:33:45.421Z,55.71
2023-04-14T10:36:13.656Z,55.04
2023-04-14T10:38:43.522Z,54.60
2023-04-14T10:41:12.639Z,54.33
2023-04-14T10:43:41.523Z,54.77
2023-04-14T10:46:11.259Z,55.02
2023-04-14T10:48:40.152Z,55.53
2023-04-14T10:51:10.890Z,56.12
2023-04-14T10:53:44.761Z,55.76
2023-04-14T10:56:12.520Z,56.38
2023-04-14T10:58:40.494Z,56.29
2023-04-14T11:01:29.981Z,57.11
2023-04-14T11:03:58.867Z,57.29
2023-04-14T11:06:57.165Z,57.11
2023-04-14T11:09:27.390Z,57.23
2023-04-14T11:11:57.576Z,57.26
2023-04-14T11:14:28.948Z,57.68
2023-04-14T11:17:03.763Z,57.55
2023-04-14T11:19:33.884Z,57.38
2023-04-14T11:22:02.964Z,57.07
2023-04-14T11:24:30.685Z,56.87
2023-04-14T11:27:00.156Z,58.14
2023-04-14T11:29:27.898Z,58.32
2023-04-14T11:32:02.929Z,57.79
2023-04-14T11:34:30.681Z,57.31
2023-04-14T11:36:58.541Z,57.19
2023-04-14T11:39:29.849Z,58.66
2023-04-14T11:42:00.243Z,59.08
2023-04-14T11:44:28.171Z,57.89
2023-04-14T11:46:55.954Z,57.13
2023-04-14T11:49:34.173Z,57.13
2023-04-14T11:52:06.216Z,57.53
2023-04-14T11:54:38.147Z,57.21
2023-04-14T11:57:11.158Z,58.85
2023-04-14T11:59:43.485Z,58.68
2023-04-14T12:02:18.127Z,58.82
2023-04-14T12:04:47.197Z,57.80
2023-04-14T12:07:17.021Z,57.82
2023-04-14T12:09:48.888Z,57.84
2023-04-14T12:12:18.135Z,58.20
2023-04-14T12:14:47.668Z,57.08
2023-04-14T12:17:16.261Z,57.51
2023-04-14T12:19:44.337Z,56.94
2023-04-14T12:22:12.325Z,56.38
2023-04-14T12:24:41.837Z,57.35
2023-04-14T12:27:11.065Z,57.57
2023-04-14T12:29:38.908Z,57.26
2023-04-14T12:32:11.910Z,56.50
2023-04-14T12:34:39.841Z,56.50
2023-04-14T12:37:09.664Z,56.26
2023-04-14T12:39:51.653Z,56.67
2023-04-14T12:42:21.049Z,57.16
2023-04-14T12:44:56.164Z,57.43
2023-04-14T12:47:31.206Z,57.51
2023-04-14T12:50:00.296Z,56.26
2023-04-14T12:52:35.791Z,56.65
2023-04-14T12:55:04.789Z,55.88
2023-04-14T12:57:34.413Z,56.30
2023-04-14T13:00:04.802Z,56.10
2023-04-14T13:02:33.282Z,55.31
2023-04-14T13:05:01.146Z,55.65
2023-04-14T13:07:28.806Z,54.85
2023-04-14T13:09:56.780Z,54.48
2023-04-14T13:12:24.554Z,54.00
2023-04-14T13:14:54.499Z,54.22
2023-04-14T13:17:22.430Z,55.04
2023-04-14T13:19:50.255Z,54.92
2023-04-14T13:22:18.054Z,55.19
2023-04-14T13:24:46.048Z,54.41
2023-04-14T13:27:13.916Z,54.85
2023-04-14T13:29:42.397Z,54.57
2023-04-14T13:32:12.759Z,54.32
2023-04-14T13:34:41.048Z,54.28
2023-04-14T13:37:08.839Z,53.79
2023-04-14T13:39:36.724Z,54.09
2023-04-14T13:42:04.592Z,54.03
2023-04-14T13:44:33.109Z,53.98
2023-04-14T13:47:00.846Z,54.42
2023-04-14T13:49:30.070Z,54.71
2023-04-14T13:51:57.855Z,54.91
2023-04-14T13:54:26.185Z,55.52
2023-04-14T13:56:53.898Z,54.79
2023-04-14T13:59:22.960Z,54.17
2023-04-14T14:01:50.799Z,52.84
2023-04-14T14:04:18.684Z,52.71
2023-04-14T14:06:48.076Z,51.55
2023-04-14T14:09:15.850Z,51.59
2023-04-14T14:11:44.658Z,50.65
2023-04-14T14:14:12.852Z,48.48
2023-04-14T14:16:40.728Z,46.96
2023-04-14T14:19:10.956Z,47.95
2023-04-14T14:21:38.743Z,49.47
2023-04-14T14:24:09.806Z,50.12
2023-04-14T14:26:37.566Z,50.68
2023-04-14T14:29:05.337Z,49.95
2023-04-14T14:31:33.229Z,51.33
2023-04-14T14:34:01.184Z,51.86
2023-04-14T14:36:29.114Z,52.45
2023-04-14T14:38:56.945Z,51.92
2023-04-14T14:41:26.013Z,51.96
2023-04-14T14:43:53.786Z,51.60
2023-04-14T14:46:23.180Z,51.63
2023-04-14T14:48:50.968Z,52.15
2023-04-14T14:51:18.691Z,52.62
2023-04-14T14:53:46.327Z,52.63
2023-04-14T14:56:14.003Z,52.67
2023-04-14T14:58:43.367Z,51.58
2023-04-14T15:01:11.319Z,52.08
2023-04-14T15:03:39.263Z,52.81
2023-04-14T15:06:07.441Z,52.56
2023-04-14T15:08:35.184Z,52.59
2023-04-14T15:11:02.890Z,52.65
2023-04-14T15:13:30.627Z,52.82
2023-04-14T15:15:59.661Z,52.23
2023-04-14T15:18:27.369Z,52.82
2023-04-14T15:20:55.425Z,52.78
2023-04-14T15:23:23.172Z,52.32
2023-04-14T15:25:51.006Z,52.03
2023-04-14T15:28:18.903Z,52.74
2023-04-14T15:30:46.618Z,52.49
2023-04-14T15:33:15.858Z,52.42
2023-04-14T15:35:43.572Z,51.44
2023-04-14T15:38:11.305Z,51.42
2023-04-14T15:40:39.846Z,51.67
2023-04-14T15:43:08.222Z,52.37
2023-04-14T15:45:35.934Z,51.39
2023-04-14T15:48:03.802Z,51.97
2023-04-14T15:50:32.896Z,52.36
2023-04-14T15:53:00.674Z,52.59
2023-04-14T15:55:28.515Z,52.73
2023-04-14T15:57:56.391Z,52.54
2023-04-14T16:00:24.307Z,52.89
2023-04-14T16:02:52.400Z,52.89
2023-04-14T16:05:20.409Z,51.65
2023-04-14T16:07:49.503Z,51.53
2023-04-14T16:10:17.188Z,51.25
2023-04-14T16:12:44.931Z,50.39
2023-04-14T16:15:12.930Z,49.92
2023-04-14T16:17:42.141Z,50.53
2023-04-14T16:20:11.422Z,51.15
2023-04-14T16:22:39.160Z,51.20
2023-04-14T16:25:09.116Z,51.01
2023-04-14T16:27:37.419Z,50.92
2023-04-14T16:30:05.693Z,50.58
2023-04-14T16:32:33.461Z,51.12
2023-04-14T16:35:01.322Z,51.10
2023-04-14T16:37:29.018Z,50.88
2023-04-14T16:39:57.508Z,51.11
2023-04-14T16:42:26.616Z,51.11
2023-04-14T16:44:55.194Z,51.13
2023-04-14T16:47:23.601Z,51.26
2023-04-14T16:49:51.754Z,50.87
2023-04-14T16:52:19.681Z,50.49
2023-04-14T16:54:47.445Z,50.66
2023-04-14T16:57:15.471Z,50.73
2023-04-14T16:59:46.098Z,50.36
2023-04-14T17:02:14.086Z,49.96
2023-04-14T17:04:42.140Z,49.72
2023-04-14T17:07:10.040Z,49.23
2023-04-14T17:09:37.761Z,49.15
2023-04-14T17:12:05.792Z,48.72
2023-04-14T17:14:34.110Z,48.67
2023-04-14T17:17:03.917Z,48.77
2023-04-14T17:19:32.263Z,49.33
2023-04-14T17:22:00.104Z,49.84
2023-04-14T17:24:27.866Z,50.37
2023-04-14T17:26:55.666Z,50.61
2023-04-14T17:29:23.356Z,50.51
2023-04-14T17:31:51.339Z,50.53
2023-04-14T17:34:20.676Z,51.14
2023-04-14T17:36:49.805Z,51.09
2023-04-14T17:39:20.370Z,51.36
2023-04-14T17:41:49.179Z,51.06
2023-04-14T17:44:16.896Z,51.22
2023-04-14T17:46:46.068Z,50.79
2023-04-14T17:49:13.810Z,51.04
2023-04-14T17:51:43.719Z,51.25
2023-04-14T17:54:11.747Z,50.90
2023-04-14T17:56:39.811Z,50.97
2023-04-14T17:59:07.658Z,51.00
2023-04-14T18:01:35.449Z,51.53
2023-04-14T18:04:04.353Z,51.23
2023-04-14T18:06:33.774Z,51.15
2023-04-14T18:09:03.836Z,51.26
2023-04-14T18:11:31.782Z,51.39
2023-04-14T18:14:00.084Z,51.29
2023-04-14T18:16:28.165Z,51.32
2023-04-14T18:18:55.912Z,50.14
2023-04-14T18:21:23.708Z,48.81
2023-04-14T18:28:54.349Z,49.60
2023-04-14T18:31:22.102Z,49.71
2023-04-14T18:33:49.807Z,50.12
2023-04-14T18:36:17.625Z,50.06
2023-04-14T18:38:45.557Z,50.25
2023-04-14T18:41:13.595Z,50.26
2023-04-14T18:43:42.713Z,50.21
2023-04-14T18:46:10.465Z,50.10
2023-04-14T18:48:38.192Z,49.97
2023-04-14T18:51:08.192Z,49.97
2023-04-14T18:53:36.061Z,50.02
2023-04-14T18:56:03.811Z,49.96
2023-04-14T18:58:31.850Z,50.32
2023-04-14T19:01:00.904Z,50.04
2023-04-14T19:03:28.742Z,50.51
2023-04-14T19:05:56.714Z,50.19
2023-04-14T19:08:24.587Z,50.55
2023-04-14T19:10:52.518Z,50.63
2023-04-14T19:13:20.864Z,50.39
2023-04-14T19:15:48.765Z,50.43
2023-04-14T19:18:17.986Z,50.69
2023-04-14T19:20:47.459Z,50.32
2023-04-14T19:23:15.217Z,50.45
2023-04-14T19:25:43.032Z,50.97
2023-04-14T19:28:16.575Z,50.91
2023-04-14T19:30:45.865Z,50.74
2023-04-14T19:33:13.948Z,50.43
2023-04-14T19:35:44.237Z,50.49
2023-04-14T19:38:12.389Z,50.54
2023-04-14T19:40:40.200Z,50.75
2023-04-14T19:43:08.566Z,50.79
2023-04-14T19:45:36.261Z,50.86
2023-04-14T19:48:10.095Z,50.31
2023-04-14T19:50:52.042Z,50.77
2023-04-14T19:53:20.296Z,50.75
2023-04-14T19:55:51.447Z,50.32
2023-04-14T19:58:21.360Z,50.48
2023-04-14T20:00:50.957Z,50.37
2023-04-14T20:03:19.322Z,50.39
2023-04-14T20:05:50.667Z,50.78
2023-04-14T20:08:20.366Z,50.64
2023-04-14T20:10:51.132Z,50.83
2023-04-14T20:13:19.867Z,50.68
2023-04-14T20:15:49.112Z,50.60
2023-04-14T20:18:18.304Z,50.67
2023-04-14T20:20:46.927Z,50.78
2023-04-14T20:23:14.682Z,50.47
2023-04-14T20:25:44.954Z,51.02
2023-04-14T20:28:13.938Z,50.61
2023-04-14T20:30:43.259Z,50.63
2023-04-14T20:33:11.437Z,50.93
2023-04-14T20:35:40.321Z,50.69
2023-04-14T20:38:08.104Z,50.45
2023-04-14T20:40:36.141Z,50.59
2023-04-14T20:43:06.113Z,50.41
2023-04-14T20:45:34.488Z,50.68
2023-04-14T20:48:02.407Z,50.35
2023-04-14T20:50:30.164Z,50.49
2023-04-14T20:52:57.847Z,50.23
2023-04-14T20:55:26.183Z,50.15
2023-04-14T20:57:54.474Z,50.41
2023-04-14T21:00:23.580Z,50.34
2023-04-14T21:02:52.322Z,50.12
2023-04-14T21:05:20.413Z,49.85
2023-04-14T21:07:49.499Z,49.61
2023-04-14T21:10:17.248Z,50.03
2023-04-14T21:15:06.434Z,50.09
2023-04-14T21:15:53.247Z,50.14
2023-04-14T21:18:22.301Z,49.82
2023-04-14T21:20:50.020Z,50.06
2023-04-14T21:23:18.915Z,49.37
2023-04-14T21:25:46.837Z,49.39
2023-04-14T21:28:14.673Z,49.91
2023-04-14T21:30:44.394Z,49.97
2023-04-14T21:33:12.229Z,49.36
2023-04-14T21:35:39.974Z,49.44
2023-04-14T21:38:08.088Z,49.63
2023-04-14T21:40:35.853Z,49.73
2023-04-14T21:43:03.565Z,49.78
2023-04-14T21:45:31.383Z,49.31
2023-04-14T21:48:00.588Z,49.74
2023-04-14T21:50:28.725Z,49.96
2023-04-14T21:52:56.623Z,49.96
2023-04-14T21:55:24.487Z,49.61
2023-04-14T21:57:52.481Z,49.61
2023-04-14T22:00:21.125Z,49.94
2023-04-14T22:02:52.456Z,49.54
2023-04-14T22:05:21.596Z,49.66
2023-04-14T22:07:49.830Z,49.80
2023-04-14T22:10:17.516Z,50.13
2023-04-14T22:12:45.706Z,50.01
2023-04-14T22:15:14.418Z,49.93
2023-04-14T22:17:42.504Z,50.25
2023-04-14T22:20:11.916Z,49.75
2023-04-14T22:22:40.976Z,50.19
2023-04-14T22:25:11.579Z,49.82
2023-04-14T22:27:40.394Z,49.91
2023-04-14T22:30:09.916Z,50.36
2023-04-14T22:32:37.672Z,49.84
2023-04-14T22:35:06.181Z,50.21
2023-04-14T22:37:34.082Z,50.05
2023-04-14T22:40:03.370Z,50.15
2023-04-14T22:42:31.246Z,50.33
2023-04-14T22:44:59.042Z,49.92
2023-04-14T22:47:26.890Z,50.06
2023-04-14T22:49:54.677Z,50.40
2023-04-14T22:52:22.395Z,50.04
2023-04-14T22:54:50.499Z,50.27
2023-04-14T22:57:19.632Z,49.88
2023-04-14T22:59:47.671Z,49.89
2023-04-14T23:02:15.528Z,49.89
2023-04-14T23:04:43.419Z,50.18
2023-04-14T23:07:11.559Z,50.20
2023-04-14T23:09:39.274Z,50.00
2023-04-14T23:12:07.215Z,50.12
2023-04-14T23:14:36.417Z,50.32
2023-04-14T23:17:04.246Z,50.41
2023-04-14T23:19:33.053Z,50.42
2023-04-14T23:22:00.769Z,50.01
2023-04-14T23:24:28.508Z,50.25
2023-04-14T23:26:56.239Z,50.21
2023-04-14T23:29:23.935Z,50.14
2023-04-14T23:31:53.085Z,50.39
2023-04-14T23:34:20.972Z,50.20
2023-04-14T23:36:48.691Z,50.27
2023-04-14T23:39:16.405Z,50.17
2023-04-14T23:41:44.135Z,50.18
2023-04-14T23:44:11.829Z,50.47
2023-04-14T23:46:40.665Z,50.13
2023-04-14T23:49:24.430Z,50.40
2023-04-14T23:51:58.003Z,50.43
2023-04-14T23:54:26.033Z,50.29
2023-04-14T23:56:53.725Z,50.44
2023-04-14T23:59:21.838Z,50.35
